Aérodrome :
LOGIN :

S'inscrire | Disclaimer

   EN    FR    IT 

 










Légende :    VFR   VFR Marginal   IFR   IFR Intensif   IFR Très Intensif
Visi : 
Plafond : 
>= 8 km
>= 3000ft
5 à 8 km
1000 à 3000 ft
1500m à 5 km
500 à 1000 ft
800 à 1500m
200 à 500 ft
< 800m
< 200 ft
Symboles :   Orages  Brouillard  Fortes neiges  Fortes précipitations  Vent > 20 kt
SIGMETs :   Divers  Orages  Givrage  Turbulence  Onde Orograph.  Cendres Volcan.






- Altitude de l'aérodrome : 26 ft
- Code IATA : BIA


LFKB - Bastia

DERNIER METAR :
  • 071600Z AUTO 01009KT 330V030 9999 NCD 31/23 Q1011 NOSIG

METARs EXPIRÉS :
  • 071530Z AUTO 02007KT 330V050 9999 NCD 31/23 Q1011 NOSIG
  • 071500Z AUTO 35005KT 320V030 9999 NCD 30/22 Q1011 NOSIG
  • 071430Z AUTO 01005KT 340V060 9999 NCD 30/22 Q1011 NOSIG
  • 071400Z AUTO 10003KT 010V150 9999 NCD 30/22 Q1011 TEMPO FEW040CB
  • 071330Z AUTO VRB02KT 9999 NCD 29/22 Q1012 TEMPO FEW040CB

TAF TAF LFKB
Valide du 07 à 15h jusqu'au 08 à 15h UTC


071400Z 0715/0815 02010KT CAVOK TX31/0812Z TN23/0802Z
BECMG 0719/0721 25010KT
BECMG 0807/0809 03010KT
TEMPO 0813/0815 FEW040CB
ATIS : +33 4 95 59 19 40



MET'MAP, la Météo Aéronautique d'un coup d'oeil ! - Copyright ORBIFLY Décembre 2007 - Disclaimer

ORBIFLY MET'MAP TEAM :

Programmation & Développement : Alexandra Zaïnal
Sur une idée originale de : Baudouin d'Aumeries
Soutien technique & logistique : Manuel Goepfert
Assistance : Marc-Olivier Méhu




SOURCES & CREDITS :

   NOAA